Time;durP1;ratioP1;P1;durP2;ratioP2;P2;SDS_P1;SDS_P2;PMS_P1;PMS_P2;Temp;Humidity;BMP_temperature;BMP_pressure;BME280_temperature;BME280_humidity;BME280_pressure;Samples;Min_cycle;Max_cycle;Signal;HPM_P1;HPM_P2
2022/01/12 00:00:43;;;;;;;1.00;0.60;;;27.70;69.20;;;;;;4142550;28;20041;-72
2022/01/12 00:03:43;;;;;;;1.25;0.50;;;27.80;69.30;;;;;;4137878;28;20167;-81
2022/01/12 00:06:06;;;;;;;0.85;0.43;;;27.80;69.30;;;;;;4133280;28;20048;-76
2022/01/12 00:08:31;;;;;;;1.00;0.55;;;27.80;69.20;;;;;;4130913;28;20115;-78
2022/01/12 00:10:56;;;;;;;3.35;0.73;;;27.80;69.20;;;;;;4140880;28;21740;-71
2022/01/12 00:13:21;;;;;;;1.52;0.25;;;27.90;69.20;;;;;;4131667;28;20056;-73
2022/01/12 00:15:44;;;;;;;0.75;0.40;;;27.80;69.00;;;;;;4139610;28;20037;-72
2022/01/12 00:18:06;;;;;;;2.65;0.50;;;27.90;69.00;;;;;;4140161;28;20040;-78
2022/01/12 00:20:29;;;;;;;1.23;0.50;;;27.90;69.00;;;;;;4132978;28;20048;-73
2022/01/12 00:22:52;;;;;;;1.33;0.55;;;27.90;69.00;;;;;;4135622;28;20057;-73
2022/01/12 00:33:11;;;;;;;2.70;0.60;;;28.00;68.70;;;;;;4134883;28;20181;-76
2022/01/12 00:35:41;;;;;;;3.22;0.82;;;28.00;68.70;;;;;;4135737;28;20257;-74
2022/01/12 00:41:04;;;;;;;1.83;0.30;;;28.10;68.80;;;;;;4127576;28;20709;-72
2022/01/12 00:43:34;;;;;;;2.97;0.43;;;28.20;68.80;;;;;;4144434;28;20068;-74
2022/01/12 00:45:57;;;;;;;3.70;0.60;;;28.20;68.70;;;;;;4139466;28;20066;-75
2022/01/12 00:48:19;;;;;;;1.77;0.57;;;28.20;68.60;;;;;;4148174;28;20056;-77
2022/01/12 00:50:48;;;;;;;0.73;0.50;;;28.20;68.70;;;;;;4135830;28;20798;-81
2022/01/12 00:53:11;;;;;;;1.08;0.52;;;28.30;68.70;;;;;;4133605;28;20041;-76
2022/01/12 00:55:34;;;;;;;1.03;0.47;;;28.30;68.60;;;;;;4136329;28;20407;-81
2022/01/12 00:57:58;;;;;;;1.50;0.47;;;28.30;68.60;;;;;;4127425;28;20329;-75
2022/01/12 01:00:28;;;;;;;1.58;0.43;;;28.30;68.40;;;;;;4139357;28;20184;-88
2022/01/12 01:03:02;;;;;;;1.83;0.65;;;28.40;68.40;;;;;;4104776;28;20591;-79
2022/01/12 01:05:33;;;;;;;1.45;0.30;;;28.40;68.30;;;;;;4146183;28;20036;-80
2022/01/12 01:07:55;;;;;;;0.47;0.35;;;28.40;68.20;;;;;;4137034;28;20156;-77
2022/01/12 01:10:30;;;;;;;0.43;0.43;;;28.40;68.20;;;;;;4148170;28;20068;-77
2022/01/12 01:12:52;;;;;;;2.10;0.50;;;28.40;68.20;;;;;;4135224;28;20274;-75
2022/01/12 01:15:18;;;;;;;1.98;0.55;;;28.50;68.90;;;;;;4146049;28;20048;-73
2022/01/12 01:28:01;;;;;;;2.38;0.80;;;28.50;68.00;;;;;;4143505;28;20041;-75
2022/01/12 01:30:24;;;;;;;0.80;0.40;;;28.50;67.90;;;;;;4127968;28;20046;-74
2022/01/12 01:32:49;;;;;;;1.85;0.55;;;28.50;67.90;;;;;;4140829;28;20134;-75
2022/01/12 01:35:12;;;;;;;1.58;0.50;;;28.50;67.80;;;;;;4142410;28;20488;-76
2022/01/12 01:38:23;;;;;;;2.55;0.50;;;28.60;67.80;;;;;;4141568;28;20045;-84
2022/01/12 01:40:46;;;;;;;0.65;0.50;;;28.60;67.70;;;;;;4132951;28;20057;-79
2022/01/12 01:54:03;;;;;;;2.78;0.77;;;28.60;67.60;;;;;;4138913;28;20037;-75
2022/01/12 01:56:26;;;;;;;2.77;0.90;;;28.60;67.60;;;;;;4136233;28;20401;-75
2022/01/12 01:58:49;;;;;;;3.72;0.90;;;28.60;67.70;;;;;;4141252;28;20055;-73
2022/01/12 02:01:11;;;;;;;2.00;1.08;;;28.60;67.90;;;;;;4133509;28;20120;-75
2022/01/12 02:03:34;;;;;;;2.17;0.85;;;28.70;67.80;;;;;;4139621;28;20084;-74
2022/01/12 02:06:03;;;;;;;3.08;1.02;;;28.70;67.80;;;;;;4142070;28;20033;-75
2022/01/12 02:08:29;;;;;;;3.78;1.05;;;28.70;67.70;;;;;;4141999;28;20492;-78
2022/01/12 02:10:57;;;;;;;3.38;0.93;;;28.70;67.60;;;;;;4147916;28;20029;-76
2022/01/12 02:13:19;;;;;;;3.60;1.00;;;28.70;67.60;;;;;;4138153;28;20076;-76
2022/01/12 02:15:45;;;;;;;1.17;0.65;;;28.70;67.60;;;;;;4146284;28;21490;-77
2022/01/12 02:40:22;;;;;;;9.80;1.08;;;28.80;67.50;;;;;;4111372;28;20061;-76
2022/01/12 02:42:48;;;;;;;4.43;0.98;;;28.80;67.60;;;;;;4147257;28;20143;-75
2022/01/12 02:50:54;;;;;;;1.63;0.90;;;28.70;67.60;;;;;;4146190;28;20041;-79
2022/01/12 02:56:00;;;;;;;3.78;1.15;;;28.70;67.60;;;;;;4145144;28;19946;-75
2022/01/12 02:58:23;;;;;;;1.55;0.80;;;28.70;67.70;;;;;;4134410;28;20030;-74
2022/01/12 03:01:11;;;;;;;2.67;1.02;;;28.70;67.70;;;;;;4134410;28;21606;-74
2022/01/12 03:03:38;;;;;;;3.40;0.93;;;28.70;67.70;;;;;;4147036;28;20091;-78
2022/01/12 03:06:04;;;;;;;1.98;0.82;;;28.70;67.70;;;;;;4140568;28;20097;-81
2022/01/12 03:08:36;;;;;;;4.32;0.90;;;28.70;68.40;;;;;;4149873;28;20037;-80
2022/01/12 03:10:59;;;;;;;3.88;0.88;;;28.70;67.80;;;;;;4147028;28;20036;-82
2022/01/12 03:13:22;;;;;;;1.45;0.70;;;28.70;67.70;;;;;;4145159;28;20415;-75
2022/01/12 03:15:47;;;;;;;;;;;28.80;67.70;;;;;;4153746;28;20041;-79
2022/01/12 03:18:10;;;;;;;2.67;0.80;;;28.80;67.70;;;;;;4154801;28;19924;-80
2022/01/12 03:20:33;;;;;;;2.88;1.00;;;28.80;67.50;;;;;;4152641;28;20427;-87
2022/01/12 03:22:55;;;;;;;2.20;0.85;;;28.80;67.40;;;;;;4161353;28;20188;-78
2022/01/12 03:25:18;;;;;;;3.95;1.35;;;28.80;67.20;;;;;;4139619;28;20500;-81
2022/01/12 03:27:41;;;;;;;2.70;0.90;;;28.80;67.00;;;;;;4139581;28;20040;-87
2022/01/12 03:30:05;;;;;;;2.55;0.95;;;28.80;66.80;;;;;;4148362;28;20033;-82
2022/01/12 03:32:38;;;;;;;3.03;1.00;;;28.80;66.60;;;;;;4132700;28;20059;-80
2022/01/12 03:35:11;;;;;;;5.27;1.00;;;28.80;66.50;;;;;;4142768;28;20049;-81
2022/01/12 03:37:54;;;;;;;3.08;1.13;;;28.80;66.70;;;;;;4133526;28;20057;-77
2022/01/12 03:40:16;;;;;;;3.53;1.15;;;28.90;66.70;;;;;;4145046;28;20507;-78
2022/01/12 03:42:39;;;;;;;4.95;1.90;;;28.90;66.40;;;;;;4150255;28;20762;-81
2022/01/12 03:45:02;;;;;;;3.38;1.60;;;28.90;65.10;;;;;;4146778;28;20045;-85
2022/01/12 03:47:24;;;;;;;3.65;1.98;;;28.80;64.70;;;;;;4140316;28;20056;-77
2022/01/12 03:49:47;;;;;;;4.68;1.88;;;28.80;64.80;;;;;;4137906;28;21663;-79
2022/01/12 03:52:13;;;;;;;3.20;1.50;;;28.80;64.90;;;;;;4135320;28;20076;-78
2022/01/12 03:54:36;;;;;;;3.25;1.55;;;28.80;65.10;;;;;;4136274;28;20289;-75
2022/01/12 03:56:59;;;;;;;7.20;1.60;;;28.80;65.20;;;;;;4141686;28;20218;-74
2022/01/12 03:59:21;;;;;;;;;;;28.80;65.30;;;;;;4138378;28;20095;-75
2022/01/12 04:01:44;;;;;;;3.55;1.40;;;28.80;65.40;;;;;;4137670;28;19924;-76
2022/01/12 04:04:11;;;;;;;4.28;1.20;;;28.80;65.50;;;;;;4143556;28;21574;-74
2022/01/12 04:09:14;;;;;;;2.70;1.25;;;28.90;65.60;;;;;;4140354;28;20128;-74
2022/01/12 04:11:37;;;;;;;6.10;1.30;;;28.90;65.70;;;;;;4129751;28;20028;-74
2022/01/12 04:13:59;;;;;;;4.38;1.65;;;28.90;66.20;;;;;;4139120;28;20083;-74
2022/01/12 04:16:22;;;;;;;2.60;1.00;;;28.90;66.00;;;;;;4138917;28;20096;-75
2022/01/12 04:18:44;;;;;;;3.42;1.10;;;28.90;66.00;;;;;;4127539;28;20219;-77
2022/01/12 04:21:09;;;;;;;2.45;1.10;;;28.90;66.00;;;;;;4136417;28;21681;-73
2022/01/12 04:23:32;;;;;;;2.15;1.02;;;28.90;66.10;;;;;;4137663;28;20047;-73
2022/01/12 04:25:57;;;;;;;1.40;0.85;;;28.90;66.30;;;;;;4128214;28;20049;-75
2022/01/12 04:28:21;;;;;;;3.05;1.08;;;28.90;66.30;;;;;;4140126;28;22254;-76
2022/01/12 04:30:45;;;;;;;2.78;0.75;;;28.90;66.30;;;;;;4135685;28;20433;-76
2022/01/12 04:33:07;;;;;;;;;;;28.90;66.20;;;;;;4134093;28;20117;-72
2022/01/12 04:35:45;;;;;;;0.57;0.55;;;28.90;66.30;;;;;;4132960;28;20003;-72
2022/01/12 04:38:08;;;;;;;0.88;0.50;;;28.90;66.50;;;;;;4135043;28;20526;-76
2022/01/12 04:40:33;;;;;;;2.10;0.70;;;28.90;66.50;;;;;;4141884;28;20691;-75
2022/01/12 04:42:56;;;;;;;2.40;0.50;;;28.90;66.70;;;;;;4134061;28;20063;-77
2022/01/12 04:45:56;;;;;;;;;;;29.00;66.70;;;;;;4136624;28;21917;-74
2022/01/12 04:50:46;;;;;;;1.88;0.40;;;29.00;66.80;;;;;;4127610;28;20049;-78
2022/01/12 04:53:10;;;;;;;0.73;0.55;;;29.00;66.80;;;;;;4143742;28;20094;-76
2022/01/12 04:55:38;;;;;;;1.98;0.70;;;29.00;66.60;;;;;;4129899;28;20041;-74
2022/01/12 04:58:01;;;;;;;0.55;0.40;;;29.00;66.60;;;;;;4138415;28;20043;-75
2022/01/12 05:00:26;;;;;;;0.63;0.30;;;29.00;66.60;;;;;;4141105;28;20726;-73
2022/01/12 05:08:20;;;;;;;0.90;0.40;;;29.10;66.70;;;;;;4139691;28;20043;-79
2022/01/12 05:13:27;;;;;;;;;;;29.10;66.50;;;;;;4145885;28;20144;-76
2022/01/12 05:15:50;;;;;;;2.15;0.40;;;29.10;66.70;;;;;;4143059;28;19916;-80
2022/01/12 05:18:12;;;;;;;4.63;0.88;;;29.00;66.70;;;;;;4140409;28;20045;-76
2022/01/12 05:20:35;;;;;;;2.35;0.60;;;29.10;66.90;;;;;;4144461;28;20202;-81
2022/01/12 05:22:58;;;;;;;0.98;0.47;;;29.10;66.80;;;;;;4143726;28;20087;-85
2022/01/12 05:25:22;;;;;;;2.42;0.43;;;29.10;66.80;;;;;;4141838;28;20041;-79
2022/01/12 05:27:48;;;;;;;1.65;0.55;;;29.10;66.80;;;;;;4139071;28;20056;-81
2022/01/12 05:30:11;;;;;;;0.52;0.40;;;29.10;67.00;;;;;;4145491;28;20040;-88
2022/01/12 05:32:34;;;;;;;3.45;0.50;;;29.10;66.90;;;;;;4138445;28;20075;-87
2022/01/12 05:35:00;;;;;;;1.23;0.38;;;29.10;66.70;;;;;;4146418;28;20047;-80
2022/01/12 05:37:23;;;;;;;0.70;0.47;;;29.10;66.80;;;;;;4130262;28;20046;-79
2022/01/12 05:39:45;;;;;;;2.30;0.60;;;29.10;66.80;;;;;;4132457;28;20446;-85
2022/01/12 05:42:08;;;;;;;2.97;0.80;;;29.00;67.00;;;;;;4145083;28;20053;-79
2022/01/12 05:44:31;;;;;;;2.17;0.63;;;29.10;67.00;;;;;;4137634;28;20037;-71
2022/01/12 05:49:55;;;;;;;0.40;0.28;;;29.00;67.00;;;;;;4141229;28;20037;-78
2022/01/12 05:52:19;;;;;;;1.67;0.50;;;29.00;67.00;;;;;;4135467;28;20044;-75
2022/01/12 05:54:42;;;;;;;0.63;0.50;;;29.00;66.90;;;;;;4139166;28;20033;-75
2022/01/12 05:57:05;;;;;;;1.70;0.75;;;29.00;66.90;;;;;;4134069;28;20546;-81
2022/01/12 05:59:27;;;;;;;1.23;0.50;;;29.00;66.80;;;;;;4144228;28;20119;-78
2022/01/12 06:01:50;;;;;;;2.95;0.60;;;29.00;66.70;;;;;;4131770;28;20070;-78
2022/01/12 06:04:13;;;;;;;0.30;0.30;;;29.00;66.70;;;;;;4140160;28;20566;-81
2022/01/12 06:06:35;;;;;;;1.00;0.28;;;29.00;66.70;;;;;;4138637;28;20033;-76
2022/01/12 06:08:58;;;;;;;3.83;0.88;;;29.00;66.80;;;;;;4134732;28;21943;-76
2022/01/12 06:11:24;;;;;;;1.60;0.57;;;28.90;66.80;;;;;;4145712;28;20036;-79
2022/01/12 06:13:50;;;;;;;1.85;0.60;;;28.90;66.90;;;;;;4139853;28;20076;-77
2022/01/12 06:16:15;;;;;;;2.97;0.65;;;28.90;66.90;;;;;;4145828;28;21794;-74
2022/01/12 06:18:41;;;;;;;1.77;0.60;;;28.90;67.00;;;;;;4137169;28;20079;-79
2022/01/12 06:21:03;;;;;;;1.10;0.50;;;28.80;67.00;;;;;;4142042;28;20045;-76
2022/01/12 06:23:26;;;;;;;2.33;0.43;;;28.80;67.00;;;;;;4147034;28;20037;-73
2022/01/12 06:25:48;;;;;;;3.10;0.95;;;28.80;67.00;;;;;;4131839;28;20025;-74
2022/01/12 06:33:25;;;;;;;2.28;0.70;;;28.70;67.10;;;;;;4143902;28;20047;-77
2022/01/12 06:35:48;;;;;;;4.18;0.57;;;28.70;67.00;;;;;;4140521;28;20426;-79
2022/01/12 06:38:10;;;;;;;1.40;0.60;;;28.70;67.00;;;;;;4141758;28;20060;-78
2022/01/12 06:40:33;;;;;;;1.38;0.47;;;28.70;67.10;;;;;;4145168;28;20052;-75
2022/01/12 06:42:55;;;;;;;1.63;0.40;;;28.70;67.10;;;;;;4140202;28;20659;-77
2022/01/12 06:45:18;;;;;;;1.73;0.73;;;28.70;67.10;;;;;;4143319;28;20045;-78
2022/01/12 06:47:41;;;;;;;2.70;0.60;;;28.70;67.10;;;;;;4149196;28;20036;-76
2022/01/12 06:50:05;;;;;;;1.30;0.40;;;28.70;67.10;;;;;;4139145;28;20306;-80
2022/01/12 06:52:27;;;;;;;2.42;0.50;;;28.70;67.10;;;;;;4144233;28;20266;-74
2022/01/12 06:54:50;;;;;;;2.55;0.85;;;28.70;67.20;;;;;;4148285;28;20041;-75
2022/01/12 06:57:16;;;;;;;3.83;1.03;;;28.60;67.10;;;;;;4138720;28;20037;-79
2022/01/12 06:59:38;;;;;;;4.43;1.70;;;28.60;67.20;;;;;;4141686;28;20278;-75
2022/01/12 07:02:01;;;;;;;5.53;2.05;;;28.70;67.10;;;;;;4139838;28;20042;-82
2022/01/12 07:04:25;;;;;;;5.57;1.90;;;28.60;67.20;;;;;;4137094;28;20143;-78
2022/01/12 07:06:50;;;;;;;5.97;2.28;;;28.60;67.30;;;;;;4140308;28;20036;-78
2022/01/12 07:09:18;;;;;;;5.75;2.47;;;28.60;67.30;;;;;;4155677;28;20044;-80
2022/01/12 07:11:42;;;;;;;5.60;2.00;;;28.60;67.30;;;;;;4157821;28;20040;-77
2022/01/12 07:14:04;;;;;;;;;;;28.60;67.30;;;;;;4162240;28;20053;-76
2022/01/12 07:16:26;;;;;;;5.35;1.85;;;28.70;67.40;;;;;;4148654;28;19984;-77
2022/01/12 07:18:49;;;;;;;6.65;2.10;;;28.70;67.40;;;;;;4138110;28;20123;-75
2022/01/12 07:21:12;;;;;;;4.03;1.77;;;28.70;67.20;;;;;;4157439;28;20103;-77
2022/01/12 07:23:34;;;;;;;4.38;1.50;;;28.70;67.10;;;;;;4137347;28;20049;-77
2022/01/12 07:25:57;;;;;;;4.53;1.70;;;28.70;67.10;;;;;;4147418;28;20048;-78
2022/01/12 07:28:20;;;;;;;3.80;1.27;;;28.70;67.10;;;;;;4150471;28;20037;-77
2022/01/12 07:30:42;;;;;;;2.63;1.20;;;28.70;67.20;;;;;;4140789;28;20436;-77
2022/01/12 07:33:05;;;;;;;3.25;1.10;;;28.70;67.00;;;;;;4144831;28;20490;-75
2022/01/12 07:35:27;;;;;;;3.92;1.23;;;28.70;67.10;;;;;;4146748;28;20041;-76
2022/01/12 07:37:50;;;;;;;3.13;1.30;;;28.70;67.20;;;;;;4141750;28;20045;-76
2022/01/12 07:40:13;;;;;;;3.63;1.02;;;28.70;67.30;;;;;;4141639;28;20437;-75
2022/01/12 07:42:36;;;;;;;2.60;1.08;;;28.70;67.30;;;;;;4149334;28;20137;-74
2022/01/12 07:45:00;;;;;;;3.35;1.20;;;28.70;67.20;;;;;;4142776;28;20037;-76
2022/01/12 07:47:23;;;;;;;4.15;1.30;;;28.70;67.30;;;;;;4135386;28;20040;-77
2022/01/12 07:49:45;;;;;;;3.92;0.95;;;28.80;67.30;;;;;;4148224;28;20041;-76
2022/01/12 07:52:08;;;;;;;1.67;1.00;;;28.70;67.10;;;;;;4139289;28;20041;-76
2022/01/12 07:54:30;;;;;;;1.98;0.98;;;28.70;67.20;;;;;;4139488;28;20156;-75
2022/01/12 07:56:53;;;;;;;2.25;0.90;;;28.70;67.20;;;;;;4145793;28;21041;-76
2022/01/12 07:59:16;;;;;;;1.95;0.70;;;28.70;67.20;;;;;;4138647;28;20809;-77
2022/01/12 08:01:38;;;;;;;2.60;0.73;;;28.70;67.20;;;;;;4135009;28;20080;-77
2022/01/12 08:04:00;;;;;;;3.85;0.82;;;28.70;67.10;;;;;;4136472;28;22151;-76
2022/01/12 08:06:23;;;;;;;1.48;0.77;;;28.80;67.40;;;;;;4140051;28;20040;-77
2022/01/12 08:08:45;;;;;;;4.78;1.17;;;28.70;67.40;;;;;;4133609;28;20048;-75
2022/01/12 08:11:11;;;;;;;1.30;0.70;;;28.70;67.30;;;;;;4139644;28;20076;-77
2022/01/12 08:13:34;;;;;;;2.47;0.65;;;28.70;67.40;;;;;;4138420;28;20123;-76
2022/01/12 08:15:56;;;;;;;1.55;0.63;;;28.70;67.30;;;;;;4127317;28;20144;-76
2022/01/12 08:18:19;;;;;;;2.65;0.88;;;28.70;67.40;;;;;;4136113;28;20630;-76
2022/01/12 08:20:48;;;;;;;0.80;0.50;;;28.70;67.40;;;;;;4131886;28;20106;-75
2022/01/12 08:23:10;;;;;;;3.95;1.08;;;28.70;67.40;;;;;;4128013;28;20049;-74
2022/01/12 08:25:36;;;;;;;0.30;0.30;;;28.70;67.40;;;;;;4141146;28;20064;-74
2022/01/12 08:28:02;;;;;;;0.85;0.40;;;28.60;67.30;;;;;;4128411;28;20669;-75
2022/01/12 08:30:29;;;;;;;1.73;0.50;;;28.70;67.40;;;;;;4138873;28;20147;-75
2022/01/12 08:32:52;;;;;;;3.67;0.38;;;28.60;67.40;;;;;;4134713;28;20032;-74
2022/01/12 08:38:01;;;;;;;1.48;0.52;;;28.60;67.50;;;;;;4133323;28;20098;-78
2022/01/12 08:40:25;;;;;;;2.67;0.70;;;28.60;67.50;;;;;;4132750;28;20851;-75
2022/01/12 08:42:48;;;;;;;2.53;0.45;;;28.60;67.70;;;;;;4133128;28;20754;-74
2022/01/12 08:45:15;;;;;;;0.98;0.40;;;28.60;68.70;;;;;;4130161;28;20150;-75
2022/01/12 08:48:00;;;;;;;2.47;0.90;;;28.60;68.00;;;;;;4139083;28;20048;-75
2022/01/12 08:50:23;;;;;;;1.75;0.43;;;28.50;68.20;;;;;;4135471;28;20558;-74
2022/01/12 08:52:47;;;;;;;1.17;0.43;;;28.50;68.30;;;;;;4131486;28;20151;-78
2022/01/12 08:55:55;;;;;;;1.25;0.60;;;28.50;68.30;;;;;;4139131;28;21994;-76
2022/01/12 09:04:45;;;;;;;3.40;0.50;;;28.40;68.50;;;;;;4128103;28;20060;-75
2022/01/12 09:10:53;;;;;;;3.70;1.00;;;28.30;68.50;;;;;;4100185;28;20041;-79
2022/01/12 09:14:45;;;;;;;;;;;;;;;;;;;;;
2022/01/12 09:17:41;;;;;;;1.67;0.47;;;28.30;68.50;;;;;;4014485;29;20879;-73
2022/01/12 09:31:35;;;;;;;;;;;;;;;;;;;;;
2022/01/12 09:34:50;;;;;;;;;;;;;;;;;;;;;
2022/01/12 09:47:35;;;;;;;1.20;0.50;;;28.10;68.70;;;;;;4035766;28;20037;-79
2022/01/12 09:50:11;;;;;;;2.38;0.40;;;28.10;68.70;;;;;;4109512;28;20038;-75
2022/01/12 09:52:37;;;;;;;0.57;0.30;;;28.10;68.70;;;;;;4125759;28;20044;-77
2022/01/12 09:55:12;;;;;;;1.23;0.55;;;28.10;68.80;;;;;;4121969;28;20042;-77
2022/01/12 09:57:37;;;;;;;1.95;0.47;;;28.10;68.80;;;;;;4105387;28;20041;-77
2022/01/12 10:00:00;;;;;;;1.67;0.40;;;28.10;68.70;;;;;;4123258;28;20611;-75
2022/01/12 10:02:23;;;;;;;2.33;0.80;;;28.10;68.50;;;;;;4114715;28;20190;-78
2022/01/12 10:04:45;;;;;;;0.43;0.30;;;28.10;68.50;;;;;;4122216;28;20148;-80
2022/01/12 10:07:09;;;;;;;1.73;0.60;;;28.10;68.40;;;;;;4113639;28;20042;-78
2022/01/12 10:09:41;;;;;;;2.33;0.75;;;28.00;67.90;;;;;;4137921;28;20064;-76
2022/01/12 10:12:05;;;;;;;1.45;0.50;;;28.00;67.90;;;;;;4113558;28;20046;-76
2022/01/12 10:15:17;;;;;;;3.00;1.10;;;28.10;67.80;;;;;;4122929;28;20391;-76
2022/01/12 10:17:49;;;;;;;2.30;0.95;;;28.10;67.30;;;;;;4121966;28;20798;-75
2022/01/12 10:20:42;;;;;;;3.20;1.10;;;28.10;67.00;;;;;;4136077;28;20044;-77
2022/01/12 10:23:23;;;;;;;5.13;1.00;;;28.10;66.80;;;;;;4123639;28;20049;-78
2022/01/12 10:25:54;;;;;;;5.47;1.40;;;28.10;66.90;;;;;;4121548;28;20209;-75
2022/01/12 10:28:29;;;;;;;3.33;1.00;;;28.10;66.70;;;;;;4141757;28;20551;-75
2022/01/12 10:31:05;;;;;;;4.18;1.08;;;28.10;66.70;;;;;;4128347;28;20085;-77
2022/01/12 10:33:37;;;;;;;3.03;1.20;;;28.10;66.70;;;;;;4121703;28;20474;-75
2022/01/12 10:36:08;;;;;;;2.17;1.02;;;28.10;66.60;;;;;;4133552;28;20203;-74
2022/01/12 10:38:33;;;;;;;2.70;0.95;;;28.10;66.70;;;;;;4119734;28;20033;-77
2022/01/12 10:43:49;;;;;;;2.35;1.13;;;28.00;66.50;;;;;;4142838;28;20043;-76
2022/01/12 10:46:20;;;;;;;7.07;1.67;;;28.10;66.70;;;;;;4152717;28;20039;-77
2022/01/12 10:48:51;;;;;;;3.65;1.17;;;28.10;66.70;;;;;;4136344;28;20037;-74
2022/01/12 10:51:20;;;;;;;2.53;1.15;;;28.00;66.90;;;;;;4160239;28;20067;-76
2022/01/12 10:53:49;;;;;;;4.20;1.33;;;28.00;66.90;;;;;;4144831;28;20058;-77
2022/01/12 10:56:15;;;;;;;3.55;1.42;;;28.00;67.10;;;;;;4158163;28;20053;-76
2022/01/12 10:58:40;;;;;;;2.03;0.50;;;28.00;67.30;;;;;;4166148;28;20493;-74
2022/01/12 11:01:03;;;;;;;1.95;0.80;;;28.00;67.50;;;;;;4157833;28;20038;-74
2022/01/12 11:03:26;;;;;;;2.17;0.70;;;28.00;67.60;;;;;;4167842;28;20053;-75
2022/01/12 11:05:53;;;;;;;1.27;0.70;;;28.00;67.70;;;;;;4165557;28;20036;-76
2022/01/12 11:08:16;;;;;;;2.15;0.60;;;28.00;67.80;;;;;;4166386;28;20036;-73
2022/01/12 11:10:39;;;;;;;1.45;0.63;;;28.00;67.80;;;;;;4151020;28;20545;-77
2022/01/12 11:13:01;;;;;;;1.70;0.75;;;28.00;67.90;;;;;;4146916;28;20040;-75
2022/01/12 11:15:24;;;;;;;3.42;0.73;;;28.00;67.90;;;;;;4156372;28;20049;-76
2022/01/12 11:17:51;;;;;;;2.00;0.80;;;27.90;68.10;;;;;;4167371;28;20036;-76
2022/01/12 11:20:30;;;;;;;1.15;0.60;;;28.00;68.10;;;;;;4167876;28;20041;-74
2022/01/12 11:23:09;;;;;;;1.98;0.47;;;28.00;68.10;;;;;;4172393;28;20364;-73
2022/01/12 11:25:33;;;;;;;3.28;0.70;;;27.90;68.10;;;;;;4171834;28;20029;-71
2022/01/12 11:28:25;;;;;;;1.25;0.57;;;28.00;68.10;;;;;;4167691;28;20080;-71
2022/01/12 11:30:54;;;;;;;2.60;0.70;;;28.00;68.20;;;;;;4113465;28;20029;-73
2022/01/12 11:33:32;;;;;;;5.60;0.57;;;28.00;68.30;;;;;;4161234;28;20158;-72
2022/01/12 11:36:05;;;;;;;1.25;0.60;;;28.00;68.20;;;;;;4153857;28;20049;-74
2022/01/12 11:38:31;;;;;;;1.60;0.57;;;27.90;68.20;;;;;;4159835;28;20465;-73
2022/01/12 11:41:18;;;;;;;2.25;0.50;;;27.90;68.10;;;;;;4160753;28;20481;-73
2022/01/12 11:43:52;;;;;;;3.25;0.70;;;27.90;68.20;;;;;;4157671;28;20534;-76
2022/01/12 11:46:24;;;;;;;2.35;0.60;;;27.90;68.10;;;;;;4153916;28;20058;-74
2022/01/12 11:48:51;;;;;;;0.98;0.50;;;27.90;68.20;;;;;;4155004;28;20097;-77
2022/01/12 11:51:33;;;;;;;1.63;0.40;;;27.90;68.30;;;;;;4168385;28;20750;-75
2022/01/12 11:53:56;;;;;;;1.13;0.60;;;27.90;68.40;;;;;;4167394;28;20124;-74
2022/01/12 11:56:27;;;;;;;1.98;0.50;;;27.90;68.30;;;;;;4167048;28;20033;-74
2022/01/12 11:59:08;;;;;;;0.50;0.32;;;27.90;68.40;;;;;;4165066;28;20033;-75
2022/01/12 12:02:05;;;;;;;4.88;0.85;;;27.90;68.50;;;;;;4164154;28;20041;-75
2022/01/12 12:04:33;;;;;;;4.43;0.90;;;27.90;68.20;;;;;;4137932;28;20066;-74
2022/01/12 12:07:18;;;;;;;1.88;0.70;;;27.90;68.00;;;;;;4154674;28;20116;-73
2022/01/12 12:09:53;;;;;;;0.98;0.50;;;27.90;67.80;;;;;;4162223;28;20099;-72
2022/01/12 12:12:33;;;;;;;2.28;0.55;;;27.90;67.80;;;;;;4167507;28;20128;-71
2022/01/12 12:14:58;;;;;;;3.78;0.82;;;27.80;68.20;;;;;;4162497;28;20494;-76
2022/01/12 12:17:22;;;;;;;1.13;0.50;;;27.80;68.30;;;;;;4164516;28;20113;-76
2022/01/12 12:19:46;;;;;;;1.55;0.50;;;27.80;68.70;;;;;;4147676;28;20049;-74
2022/01/12 12:22:18;;;;;;;2.53;0.70;;;27.80;69.00;;;;;;4168722;28;20539;-75
2022/01/12 12:24:41;;;;;;;1.48;0.55;;;27.80;69.10;;;;;;4159997;28;20041;-75
2022/01/12 12:27:05;;;;;;;;;;;27.80;69.10;;;;;;4165268;28;20045;-77
2022/01/12 12:29:28;;;;;;;1.65;0.82;;;27.80;69.20;;;;;;4164360;28;20289;-80
2022/01/12 12:31:51;;;;;;;3.95;1.00;;;27.80;69.00;;;;;;4160235;28;20041;-73
2022/01/12 12:34:14;;;;;;;2.75;1.10;;;27.70;68.70;;;;;;4162876;28;20030;-71
2022/01/12 12:36:36;;;;;;;4.15;1.02;;;27.70;68.80;;;;;;4159070;28;20084;-74
2022/01/12 12:39:14;;;;;;;3.45;1.02;;;27.70;68.90;;;;;;4157396;28;20506;-73
2022/01/12 12:41:41;;;;;;;2.92;0.90;;;27.60;68.70;;;;;;4161794;28;20060;-74
2022/01/12 12:44:05;;;;;;;3.00;0.80;;;27.60;68.70;;;;;;4158259;28;20717;-75
2022/01/12 12:46:27;;;;;;;4.43;0.93;;;27.60;68.70;;;;;;4165494;28;20042;-73
2022/01/12 12:48:51;;;;;;;2.00;0.68;;;27.50;68.60;;;;;;4161368;28;20067;-72
2022/01/12 12:51:16;;;;;;;5.30;0.85;;;27.60;68.70;;;;;;4162333;28;20037;-74
2022/01/12 12:53:47;;;;;;;2.33;0.80;;;27.50;68.60;;;;;;4155992;28;20033;-76
2022/01/12 12:56:21;;;;;;;1.65;0.60;;;27.50;68.60;;;;;;4162939;28;20040;-72
2022/01/12 12:58:50;;;;;;;3.80;1.25;;;27.50;68.60;;;;;;4162786;28;20049;-73
2022/01/12 13:01:14;;;;;;;3.53;0.75;;;27.50;68.60;;;;;;4162814;28;20037;-72
2022/01/12 13:03:39;;;;;;;2.60;0.93;;;27.50;69.10;;;;;;4160851;28;20139;-72
2022/01/12 13:06:02;;;;;;;2.20;0.80;;;27.50;68.70;;;;;;4151212;28;20034;-73
2022/01/12 13:08:24;;;;;;;4.32;0.77;;;27.50;68.70;;;;;;4152234;28;20100;-71
2022/01/12 13:10:47;;;;;;;1.02;0.63;;;27.40;68.50;;;;;;4161617;28;20063;-73
2022/01/12 13:13:12;;;;;;;4.25;1.48;;;27.40;68.50;;;;;;4172654;28;20458;-72
2022/01/12 13:15:43;;;;;;;5.75;1.15;;;27.40;68.60;;;;;;4175071;28;20513;-71
2022/01/12 13:18:07;;;;;;;1.55;0.65;;;27.40;68.50;;;;;;4174435;28;20107;-72
2022/01/12 13:23:20;;;;;;;2.28;0.70;;;27.40;68.40;;;;;;4173894;28;20045;-72
2022/01/12 13:25:43;;;;;;;2.03;0.95;;;27.40;68.40;;;;;;4172636;28;20463;-75
2022/01/12 13:28:06;;;;;;;4.45;0.80;;;27.40;68.40;;;;;;4159682;28;20554;-72
2022/01/12 13:30:58;;;;;;;2.65;0.50;;;27.30;68.40;;;;;;4158857;28;20072;-72
2022/01/12 13:33:30;;;;;;;2.25;0.73;;;27.30;68.40;;;;;;4174206;28;20517;-74
2022/01/12 13:35:53;;;;;;;1.02;0.55;;;27.30;68.50;;;;;;4175499;28;20495;-72
2022/01/12 13:38:30;;;;;;;0.97;0.73;;;27.30;68.60;;;;;;4164481;28;20029;-70
2022/01/12 13:40:55;;;;;;;1.02;0.50;;;27.30;69.10;;;;;;4182005;28;20048;-71
2022/01/12 13:43:20;;;;;;;2.25;0.90;;;27.30;68.60;;;;;;4180443;28;20083;-72
2022/01/12 13:45:49;;;;;;;2.40;0.73;;;27.30;68.60;;;;;;4173953;28;20044;-72
2022/01/12 13:48:17;;;;;;;1.02;0.50;;;27.30;68.60;;;;;;4170848;28;20036;-73
2022/01/12 13:50:43;;;;;;;0.80;0.50;;;27.30;68.60;;;;;;4158673;28;20757;-71
2022/01/12 13:53:06;;;;;;;1.45;0.70;;;27.30;68.60;;;;;;4171848;28;20753;-72
2022/01/12 13:55:28;;;;;;;1.90;0.77;;;27.30;68.00;;;;;;4174748;28;20040;-71
2022/01/12 13:58:05;;;;;;;3.28;0.75;;;27.20;68.50;;;;;;4174014;28;20071;-72
2022/01/12 14:00:29;;;;;;;1.48;0.52;;;27.30;68.70;;;;;;4174678;28;20452;-71
2022/01/12 14:02:51;;;;;;;2.13;0.90;;;27.20;68.60;;;;;;4177402;28;20060;-73
2022/01/12 14:05:23;;;;;;;1.25;0.60;;;27.20;68.60;;;;;;4176533;28;20631;-71
2022/01/12 14:08:00;;;;;;;1.13;0.65;;;27.20;68.50;;;;;;4176199;28;20049;-72
2022/01/12 14:10:23;;;;;;;0.68;0.40;;;27.20;68.40;;;;;;4177059;28;20704;-74
2022/01/12 14:12:53;;;;;;;0.93;0.57;;;27.20;68.40;;;;;;4174831;28;20423;-75
2022/01/12 14:15:22;;;;;;;1.52;0.60;;;27.20;68.50;;;;;;4175945;28;20041;-73
2022/01/12 14:17:48;;;;;;;0.90;0.50;;;27.20;68.30;;;;;;4176696;28;20049;-73
2022/01/12 14:20:23;;;;;;;1.70;0.50;;;27.20;68.30;;;;;;4176484;28;20045;-72
2022/01/12 14:22:48;;;;;;;1.55;0.50;;;27.20;68.30;;;;;;4174913;28;20044;-72
2022/01/12 14:25:11;;;;;;;0.85;0.57;;;27.20;68.40;;;;;;4159922;28;20384;-71
2022/01/12 14:27:45;;;;;;;0.70;0.32;;;27.10;68.30;;;;;;4160553;28;20050;-74
2022/01/12 14:30:09;;;;;;;1.05;0.60;;;27.10;68.20;;;;;;4167135;28;20045;-74
2022/01/12 14:32:36;;;;;;;2.25;0.52;;;27.10;68.30;;;;;;4174696;28;20051;-73
2022/01/12 14:34:58;;;;;;;1.15;0.75;;;27.10;68.30;;;;;;4176876;28;20103;-73
2022/01/12 14:37:21;;;;;;;0.68;0.52;;;27.10;68.20;;;;;;4176042;28;20040;-72
2022/01/12 14:39:43;;;;;;;1.70;0.70;;;27.10;68.20;;;;;;4159560;28;20474;-73
2022/01/12 14:42:06;;;;;;;7.63;1.30;;;27.10;68.30;;;;;;4160070;28;20049;-74
2022/01/12 14:44:33;;;;;;;3.20;0.60;;;27.10;68.40;;;;;;4152617;28;20048;-74
2022/01/12 14:46:55;;;;;;;2.47;0.35;;;27.10;68.30;;;;;;4174584;28;20033;-74
2022/01/12 14:49:18;;;;;;;0.77;0.47;;;27.10;68.30;;;;;;4160955;28;20048;-73
2022/01/12 14:51:40;;;;;;;1.70;0.40;;;27.10;68.30;;;;;;4175944;28;20044;-73
2022/01/12 14:54:03;;;;;;;6.32;0.50;;;27.00;68.30;;;;;;4175806;28;20052;-73
2022/01/12 14:56:25;;;;;;;4.45;0.60;;;27.00;68.20;;;;;;4176414;28;20037;-74